sensor_id;sensor_type;location;lat;lon;timestamp;pressure;altitude;pressure_sealevel;temperature;humidity
34586;BME280;20816;50.950;11.108;2023-08-06T00:00:29;97654.38;;;14.95;100.00
34586;BME280;20816;50.950;11.108;2023-08-06T00:02:55;97654.19;;;14.98;100.00
34586;BME280;20816;50.950;11.108;2023-08-06T00:05:22;97654.19;;;14.98;100.00
34586;BME280;20816;50.950;11.108;2023-08-06T00:07:49;97644.72;;;14.94;100.00
34586;BME280;20816;50.950;11.108;2023-08-06T00:10:16;97635.09;;;14.93;100.00
34586;BME280;20816;50.950;11.108;2023-08-06T00:12:43;97636.97;;;14.91;100.00
34586;BME280;20816;50.950;11.108;2023-08-06T00:15:10;97629.03;;;14.91;100.00
34586;BME280;20816;50.950;11.108;2023-08-06T00:17:37;97625.25;;;14.95;100.00
34586;BME280;20816;50.950;11.108;2023-08-06T00:20:05;97617.50;;;14.92;100.00
34586;BME280;20816;50.950;11.108;2023-08-06T00:22:37;97612.22;;;14.92;100.00
34586;BME280;20816;50.950;11.108;2023-08-06T00:25:05;97608.00;;;14.88;100.00
34586;BME280;20816;50.950;11.108;2023-08-06T00:27:32;97607.16;;;14.87;100.00
34586;BME280;20816;50.950;11.108;2023-08-06T00:30:01;97611.78;;;14.83;100.00
34586;BME280;20816;50.950;11.108;2023-08-06T00:32:28;97614.25;;;14.86;100.00
34586;BME280;20816;50.950;11.108;2023-08-06T00:34:55;97610.84;;;14.84;100.00
34586;BME280;20816;50.950;11.108;2023-08-06T00:37:21;97605.69;;;14.81;100.00
34586;BME280;20816;50.950;11.108;2023-08-06T00:39:48;97601.09;;;14.85;100.00
34586;BME280;20816;50.950;11.108;2023-08-06T00:42:14;97594.97;;;14.84;100.00
34586;BME280;20816;50.950;11.108;2023-08-06T00:44:42;97594.13;;;14.84;100.00
34586;BME280;20816;50.950;11.108;2023-08-06T00:47:09;97595.06;;;14.83;100.00
34586;BME280;20816;50.950;11.108;2023-08-06T00:49:36;97590.84;;;14.79;100.00
34586;BME280;20816;50.950;11.108;2023-08-06T00:52:06;97585.47;;;14.80;100.00
34586;BME280;20816;50.950;11.108;2023-08-06T00:54:34;97577.44;;;14.82;100.00
34586;BME280;20816;50.950;11.108;2023-08-06T00:57:03;97574.13;;;14.78;100.00
34586;BME280;20816;50.950;11.108;2023-08-06T00:59:31;97583.94;;;14.76;100.00
34586;BME280;20816;50.950;11.108;2023-08-06T01:01:59;97577.09;;;14.72;100.00
34586;BME280;20816;50.950;11.108;2023-08-06T01:04:26;97570.88;;;14.73;100.00
34586;BME280;20816;50.950;11.108;2023-08-06T01:09:43;97564.91;;;14.70;100.00
34586;BME280;20816;50.950;11.108;2023-08-06T01:12:47;97559.63;;;14.70;100.00
34586;BME280;20816;50.950;11.108;2023-08-06T01:15:32;97556.22;;;14.68;100.00
34586;BME280;20816;50.950;11.108;2023-08-06T01:18:01;97562.19;;;14.71;100.00
34586;BME280;20816;50.950;11.108;2023-08-06T01:20:29;97570.38;;;14.67;100.00
34586;BME280;20816;50.950;11.108;2023-08-06T01:22:56;97568.59;;;14.67;100.00
34586;BME280;20816;50.950;11.108;2023-08-06T01:25:30;97567.13;;;14.62;100.00
34586;BME280;20816;50.950;11.108;2023-08-06T01:28:06;97575.16;;;14.60;100.00
34586;BME280;20816;50.950;11.108;2023-08-06T01:30:39;97575.16;;;14.60;100.00
34586;BME280;20816;50.950;11.108;2023-08-06T01:33:10;97568.16;;;14.59;100.00
34586;BME280;20816;50.950;11.108;2023-08-06T01:35:42;97560.03;;;14.62;100.00
34586;BME280;20816;50.950;11.108;2023-08-06T01:38:09;97561.94;;;14.60;100.00
34586;BME280;20816;50.950;11.108;2023-08-06T01:40:36;97555.00;;;14.57;100.00
34586;BME280;20816;50.950;11.108;2023-08-06T01:43:02;97559.78;;;14.51;100.00
34586;BME280;20816;50.950;11.108;2023-08-06T01:45:29;97559.94;;;14.48;100.00
34586;BME280;20816;50.950;11.108;2023-08-06T01:47:56;97548.59;;;14.46;100.00
34586;BME280;20816;50.950;11.108;2023-08-06T01:50:22;97547.66;;;14.47;100.00
34586;BME280;20816;50.950;11.108;2023-08-06T01:52:49;97542.22;;;14.50;100.00
34586;BME280;20816;50.950;11.108;2023-08-06T01:55:16;97543.91;;;14.51;100.00
34586;BME280;20816;50.950;11.108;2023-08-06T01:57:42;97542.97;;;14.52;100.00
34586;BME280;20816;50.950;11.108;2023-08-06T02:00:09;97537.59;;;14.53;100.00
34586;BME280;20816;50.950;11.108;2023-08-06T02:02:36;97523.06;;;14.45;100.00
34586;BME280;20816;50.950;11.108;2023-08-06T02:05:03;97520.50;;;14.43;100.00
34586;BME280;20816;50.950;11.108;2023-08-06T02:07:30;97522.44;;;14.40;100.00
34586;BME280;20816;50.950;11.108;2023-08-06T02:09:57;97521.50;;;14.41;100.00
34586;BME280;20816;50.950;11.108;2023-08-06T02:12:23;97512.91;;;14.37;100.00
34586;BME280;20816;50.950;11.108;2023-08-06T02:14:50;97513.13;;;14.32;100.00
34586;BME280;20816;50.950;11.108;2023-08-06T02:17:17;97501.47;;;14.37;100.00
34586;BME280;20816;50.950;11.108;2023-08-06T02:19:44;97507.63;;;14.37;100.00
34586;BME280;20816;50.950;11.108;2023-08-06T02:22:10;97506.00;;;14.35;100.00
34586;BME280;20816;50.950;11.108;2023-08-06T02:24:37;97499.78;;;14.36;100.00
34586;BME280;20816;50.950;11.108;2023-08-06T02:27:04;97493.63;;;14.35;100.00
34586;BME280;20816;50.950;11.108;2023-08-06T02:29:31;97491.84;;;14.36;100.00
34586;BME280;20816;50.950;11.108;2023-08-06T02:31:57;97499.25;;;14.29;100.00
34586;BME280;20816;50.950;11.108;2023-08-06T02:34:24;97493.03;;;14.30;100.00
34586;BME280;20816;50.950;11.108;2023-08-06T02:36:51;97485.19;;;14.28;100.00
34586;BME280;20816;50.950;11.108;2023-08-06T02:39:18;97477.25;;;14.28;100.00
34586;BME280;20816;50.950;11.108;2023-08-06T02:41:45;97475.38;;;14.30;100.00
34586;BME280;20816;50.950;11.108;2023-08-06T02:44:11;97472.59;;;14.34;100.00
34586;BME280;20816;50.950;11.108;2023-08-06T02:46:38;97475.97;;;14.36;100.00
34586;BME280;20816;50.950;11.108;2023-08-06T02:49:06;97467.63;;;14.27;100.00
34586;BME280;20816;50.950;11.108;2023-08-06T02:51:33;97474.44;;;14.31;100.00
34586;BME280;20816;50.950;11.108;2023-08-06T02:53:59;97471.03;;;14.29;100.00
34586;BME280;20816;50.950;11.108;2023-08-06T02:56:26;97471.22;;;14.26;100.00
34586;BME280;20816;50.950;11.108;2023-08-06T02:58:53;97469.50;;;14.25;100.00
34586;BME280;20816;50.950;11.108;2023-08-06T03:01:19;97464.97;;;14.27;100.00
34586;BME280;20816;50.950;11.108;2023-08-06T03:03:46;97454.81;;;14.20;100.00
34586;BME280;20816;50.950;11.108;2023-08-06T03:06:13;97460.97;;;14.20;100.00
34586;BME280;20816;50.950;11.108;2023-08-06T03:08:40;97458.41;;;14.19;100.00
34586;BME280;20816;50.950;11.108;2023-08-06T03:11:06;97462.84;;;14.18;100.00
34586;BME280;20816;50.950;11.108;2023-08-06T03:13:33;97462.00;;;14.18;100.00
34586;BME280;20816;50.950;11.108;2023-08-06T03:16:00;97452.94;;;14.22;100.00
34586;BME280;20816;50.950;11.108;2023-08-06T03:18:29;97459.50;;;14.15;100.00
34586;BME280;20816;50.950;11.108;2023-08-06T03:20:56;97465.13;;;14.24;100.00
34586;BME280;20816;50.950;11.108;2023-08-06T03:23:23;97465.31;;;14.21;100.00
34586;BME280;20816;50.950;11.108;2023-08-06T03:25:50;97457.72;;;14.15;100.00
34586;BME280;20816;50.950;11.108;2023-08-06T03:28:16;97454.22;;;14.15;100.00
34586;BME280;20816;50.950;11.108;2023-08-06T03:30:43;97460.69;;;14.25;100.00
34586;BME280;20816;50.950;11.108;2023-08-06T03:33:10;97457.38;;;14.21;100.00
34586;BME280;20816;50.950;11.108;2023-08-06T03:35:37;97456.34;;;14.24;100.00
34586;BME280;20816;50.950;11.108;2023-08-06T03:38:03;97448.19;;;14.28;100.00
34586;BME280;20816;50.950;11.108;2023-08-06T03:40:30;97444.78;;;14.26;100.00
34586;BME280;20816;50.950;11.108;2023-08-06T03:42:57;97437.78;;;14.25;100.00
34586;BME280;20816;50.950;11.108;2023-08-06T03:45:23;97449.66;;;14.34;100.00
34586;BME280;20816;50.950;11.108;2023-08-06T03:47:50;97451.25;;;14.37;100.00
34586;BME280;20816;50.950;11.108;2023-08-06T03:50:17;97448.38;;;14.25;100.00
34586;BME280;20816;50.950;11.108;2023-08-06T03:52:43;97448.19;;;14.28;100.00
34586;BME280;20816;50.950;11.108;2023-08-06T03:55:10;97442.81;;;14.30;100.00
34586;BME280;20816;50.950;11.108;2023-08-06T03:57:37;97441.44;;;14.23;100.00
34586;BME280;20816;50.950;11.108;2023-08-06T04:00:04;97447.06;;;14.32;100.00
34586;BME280;20816;50.950;11.108;2023-08-06T04:02:31;97449.88;;;14.29;100.00
34586;BME280;20816;50.950;11.108;2023-08-06T04:04:58;97447.91;;;14.33;100.00
34586;BME280;20816;50.950;11.108;2023-08-06T04:07:25;97442.38;;;14.38;100.00
34586;BME280;20816;50.950;11.108;2023-08-06T04:10:02;97446.91;;;14.36;100.00
34586;BME280;20816;50.950;11.108;2023-08-06T04:12:30;97445.13;;;14.36;100.00
34586;BME280;20816;50.950;11.108;2023-08-06T04:14:59;97439.13;;;14.32;100.00
34586;BME280;20816;50.950;11.108;2023-08-06T04:17:26;97448.00;;;14.31;100.00
34586;BME280;20816;50.950;11.108;2023-08-06T04:19:54;97445.53;;;14.28;100.00
34586;BME280;20816;50.950;11.108;2023-08-06T04:22:21;97451.44;;;14.34;100.00
34586;BME280;20816;50.950;11.108;2023-08-06T04:24:48;97451.75;;;14.27;100.00
34586;BME280;20816;50.950;11.108;2023-08-06T04:27:15;97451.59;;;14.30;100.00
34586;BME280;20816;50.950;11.108;2023-08-06T04:29:43;97449.38;;;14.39;100.00
34586;BME280;20816;50.950;11.108;2023-08-06T04:32:10;97447.34;;;14.44;100.00
34586;BME280;20816;50.950;11.108;2023-08-06T04:34:37;97438.47;;;14.45;100.00
34586;BME280;20816;50.950;11.108;2023-08-06T04:37:04;97439.94;;;14.50;100.00
34586;BME280;20816;50.950;11.108;2023-08-06T04:39:31;97441.56;;;14.53;100.00
34586;BME280;20816;50.950;11.108;2023-08-06T04:41:58;97430.97;;;14.53;100.00
34586;BME280;20816;50.950;11.108;2023-08-06T04:44:24;97430.81;;;14.56;100.00
34586;BME280;20816;50.950;11.108;2023-08-06T04:46:51;97430.81;;;14.56;100.00
34586;BME280;20816;50.950;11.108;2023-08-06T04:49:20;97424.66;;;14.55;100.00
34586;BME280;20816;50.950;11.108;2023-08-06T04:51:47;97427.06;;;14.60;100.00
34586;BME280;20816;50.950;11.108;2023-08-06T04:54:13;97425.25;;;14.61;100.00
34586;BME280;20816;50.950;11.108;2023-08-06T04:56:40;97414.59;;;14.62;100.00
34586;BME280;20816;50.950;11.108;2023-08-06T04:59:07;97419.69;;;14.65;100.00
34586;BME280;20816;50.950;11.108;2023-08-06T05:01:33;97409.13;;;14.65;100.00
34586;BME280;20816;50.950;11.108;2023-08-06T05:04:00;97422.28;;;14.67;100.00
34586;BME280;20816;50.950;11.108;2023-08-06T05:06:27;97415.00;;;14.70;100.00
34586;BME280;20816;50.950;11.108;2023-08-06T05:08:54;97416.91;;;14.68;100.00
34586;BME280;20816;50.950;11.108;2023-08-06T05:11:20;97416.63;;;14.73;100.00
34586;BME280;20816;50.950;11.108;2023-08-06T05:13:47;97408.69;;;14.73;100.00
34586;BME280;20816;50.950;11.108;2023-08-06T05:16:14;97403.13;;;14.77;100.00
34586;BME280;20816;50.950;11.108;2023-08-06T05:18:41;97403.91;;;14.79;100.00
34586;BME280;20816;50.950;11.108;2023-08-06T05:21:08;97410.13;;;14.78;100.00
34586;BME280;20816;50.950;11.108;2023-08-06T05:23:35;97408.25;;;14.80;100.00
34586;BME280;20816;50.950;11.108;2023-08-06T05:26:01;97406.84;;;14.89;100.00
34586;BME280;20816;50.950;11.108;2023-08-06T05:28:28;97396.81;;;14.80;100.00
34586;BME280;20816;50.950;11.108;2023-08-06T05:30:55;97394.91;;;14.82;100.00
34586;BME280;20816;50.950;11.108;2023-08-06T05:33:22;97393.63;;;14.89;100.00
34586;BME280;20816;50.950;11.108;2023-08-06T05:35:49;97390.31;;;14.85;100.00
34586;BME280;20816;50.950;11.108;2023-08-06T05:38:17;97390.22;;;14.87;100.00
34586;BME280;20816;50.950;11.108;2023-08-06T05:40:44;97385.53;;;14.92;100.00
34586;BME280;20816;50.950;11.108;2023-08-06T05:43:11;97399.25;;;14.99;100.00
34586;BME280;20816;50.950;11.108;2023-08-06T05:45:37;97397.25;;;15.02;100.00
34586;BME280;20816;50.950;11.108;2023-08-06T05:48:04;97401.72;;;15.02;100.00
34586;BME280;20816;50.950;11.108;2023-08-06T05:50:31;97395.56;;;15.01;100.00
34586;BME280;20816;50.950;11.108;2023-08-06T05:52:58;97396.06;;;15.08;100.00
34586;BME280;20816;50.950;11.108;2023-08-06T05:55:27;97396.72;;;15.11;100.00
34586;BME280;20816;50.950;11.108;2023-08-06T05:57:54;97389.72;;;15.10;100.00
34586;BME280;20816;50.950;11.108;2023-08-06T06:00:21;97404.41;;;15.16;100.00
34586;BME280;20816;50.950;11.108;2023-08-06T06:02:48;97399.25;;;15.13;100.00
34586;BME280;20816;50.950;11.108;2023-08-06T06:05:15;97403.44;;;15.17;100.00
34586;BME280;20816;50.950;11.108;2023-08-06T06:07:41;97391.38;;;15.27;100.00
34586;BME280;20816;50.950;11.108;2023-08-06T06:10:08;97389.47;;;15.29;100.00
34586;BME280;20816;50.950;11.108;2023-08-06T06:12:35;97394.19;;;15.38;100.00
34586;BME280;20816;50.950;11.108;2023-08-06T06:15:02;97390.25;;;15.46;100.00
34586;BME280;20816;50.950;11.108;2023-08-06T06:17:30;97393.28;;;15.54;100.00
34586;BME280;20816;50.950;11.108;2023-08-06T06:19:56;97387.81;;;15.57;100.00
34586;BME280;20816;50.950;11.108;2023-08-06T06:22:23;97382.72;;;15.68;100.00
34586;BME280;20816;50.950;11.108;2023-08-06T06:24:50;97384.06;;;15.75;100.00
34586;BME280;20816;50.950;11.108;2023-08-06T06:27:16;97388.03;;;15.82;100.00
34586;BME280;20816;50.950;11.108;2023-08-06T06:29:43;97382.22;;;16.04;100.00
34586;BME280;20816;50.950;11.108;2023-08-06T06:32:10;97379.25;;;16.23;100.00
34586;BME280;20816;50.950;11.108;2023-08-06T06:34:36;97375.19;;;16.44;100.00
34586;BME280;20816;50.950;11.108;2023-08-06T06:37:03;97373.66;;;16.54;100.00
34586;BME280;20816;50.950;11.108;2023-08-06T06:39:30;97379.97;;;16.66;100.00
34586;BME280;20816;50.950;11.108;2023-08-06T06:41:56;97375.97;;;16.73;100.00
34586;BME280;20816;50.950;11.108;2023-08-06T06:44:23;97383.44;;;16.94;100.00
34586;BME280;20816;50.950;11.108;2023-08-06T06:46:50;97378.94;;;17.08;100.00
34586;BME280;20816;50.950;11.108;2023-08-06T06:49:17;97372.78;;;17.21;100.00
34586;BME280;20816;50.950;11.108;2023-08-06T06:51:43;97367.72;;;17.43;100.00
34586;BME280;20816;50.950;11.108;2023-08-06T06:54:10;97371.00;;;17.72;100.00
34586;BME280;20816;50.950;11.108;2023-08-06T06:56:37;97372.06;;;17.70;100.00
34586;BME280;20816;50.950;11.108;2023-08-06T06:59:04;97374.81;;;17.81;100.00
34586;BME280;20816;50.950;11.108;2023-08-06T07:01:31;97372.59;;;17.75;100.00
34586;BME280;20816;50.950;11.108;2023-08-06T07:03:58;97365.03;;;17.69;100.00
34586;BME280;20816;50.950;11.108;2023-08-06T07:06:25;97363.34;;;17.68;100.00
34586;BME280;20816;50.950;11.108;2023-08-06T07:08:51;97364.09;;;17.70;100.00
34586;BME280;20816;50.950;11.108;2023-08-06T07:11:18;97359.84;;;17.54;100.00
34586;BME280;20816;50.950;11.108;2023-08-06T07:13:45;97371.63;;;17.50;100.00
34586;BME280;20816;50.950;11.108;2023-08-06T07:16:11;97369.19;;;17.47;100.00
34586;BME280;20816;50.950;11.108;2023-08-06T07:18:38;97366.31;;;17.50;100.00
34586;BME280;20816;50.950;11.108;2023-08-06T07:21:05;97360.38;;;17.59;100.00
34586;BME280;20816;50.950;11.108;2023-08-06T07:23:32;97355.25;;;17.82;100.00
34586;BME280;20816;50.950;11.108;2023-08-06T07:25:59;97357.06;;;17.81;100.00
34586;BME280;20816;50.950;11.108;2023-08-06T07:28:25;97361.41;;;17.95;100.00
34586;BME280;20816;50.950;11.108;2023-08-06T07:30:52;97366.31;;;18.01;100.00
34586;BME280;20816;50.950;11.108;2023-08-06T07:33:19;97348.56;;;17.89;100.00
34586;BME280;20816;50.950;11.108;2023-08-06T07:35:45;97356.97;;;17.83;100.00
34586;BME280;20816;50.950;11.108;2023-08-06T07:38:12;97361.66;;;17.92;100.00
34586;BME280;20816;50.950;11.108;2023-08-06T07:40:39;97367.81;;;17.80;100.00
34586;BME280;20816;50.950;11.108;2023-08-06T07:43:05;97362.69;;;18.02;100.00
34586;BME280;20816;50.950;11.108;2023-08-06T07:45:34;97360.09;;;18.13;100.00
34586;BME280;20816;50.950;11.108;2023-08-06T07:48:02;97361.53;;;18.30;100.00
34586;BME280;20816;50.950;11.108;2023-08-06T07:50:29;97351.56;;;18.45;100.00
34586;BME280;20816;50.950;11.108;2023-08-06T07:52:56;97348.16;;;19.26;100.00
34586;BME280;20816;50.950;11.108;2023-08-06T07:55:22;97347.88;;;19.98;96.60
34586;BME280;20816;50.950;11.108;2023-08-06T07:57:49;97358.53;;;19.98;96.21
34586;BME280;20816;50.950;11.108;2023-08-06T08:00:16;97348.88;;;20.51;93.24
34586;BME280;20816;50.950;11.108;2023-08-06T08:02:42;97344.25;;;21.38;91.10
34586;BME280;20816;50.950;11.108;2023-08-06T08:05:09;97330.69;;;22.12;87.96
34586;BME280;20816;50.950;11.108;2023-08-06T08:07:36;97333.00;;;22.36;84.23
34586;BME280;20816;50.950;11.108;2023-08-06T08:10:03;97324.13;;;21.95;84.00
34586;BME280;20816;50.950;11.108;2023-08-06T08:12:31;97316.94;;;21.96;84.85
34586;BME280;20816;50.950;11.108;2023-08-06T08:14:58;97320.34;;;22.57;83.80
34586;BME280;20816;50.950;11.108;2023-08-06T08:17:25;97317.38;;;21.91;82.59
34586;BME280;20816;50.950;11.108;2023-08-06T08:19:51;97322.41;;;21.85;82.11
34586;BME280;20816;50.950;11.108;2023-08-06T08:22:18;97318.75;;;22.26;82.24
34586;BME280;20816;50.950;11.108;2023-08-06T08:24:45;97312.88;;;22.01;80.70
34586;BME280;20816;50.950;11.108;2023-08-06T08:27:11;97314.38;;;22.25;80.68
34586;BME280;20816;50.950;11.108;2023-08-06T08:29:38;97310.72;;;22.26;81.54
34586;BME280;20816;50.950;11.108;2023-08-06T08:32:05;97307.66;;;22.59;79.96
34586;BME280;20816;50.950;11.108;2023-08-06T08:34:32;97305.84;;;23.08;77.32
34586;BME280;20816;50.950;11.108;2023-08-06T08:36:59;97307.34;;;23.20;77.18
34586;BME280;20816;50.950;11.108;2023-08-06T08:39:25;97304.56;;;23.03;78.21
34586;BME280;20816;50.950;11.108;2023-08-06T08:41:52;97299.41;;;23.85;74.43
34586;BME280;20816;50.950;11.108;2023-08-06T08:44:19;97290.94;;;23.90;74.44
34586;BME280;20816;50.950;11.108;2023-08-06T08:46:47;97293.69;;;24.25;73.66
34586;BME280;20816;50.950;11.108;2023-08-06T08:49:14;97297.38;;;23.69;75.85
34586;BME280;20816;50.950;11.108;2023-08-06T08:51:43;97285.63;;;24.25;74.22
34586;BME280;20816;50.950;11.108;2023-08-06T08:54:12;97290.34;;;24.69;73.66
34586;BME280;20816;50.950;11.108;2023-08-06T08:56:39;97290.94;;;23.62;75.15
34586;BME280;20816;50.950;11.108;2023-08-06T08:59:06;97290.47;;;23.10;75.59
34586;BME280;20816;50.950;11.108;2023-08-06T09:01:33;97287.81;;;23.57;75.28
34586;BME280;20816;50.950;11.108;2023-08-06T09:04:01;97291.72;;;23.72;74.08
34586;BME280;20816;50.950;11.108;2023-08-06T09:06:29;97284.81;;;24.52;74.10
34586;BME280;20816;50.950;11.108;2023-08-06T09:09:09;97281.38;;;25.22;71.28
34586;BME280;20816;50.950;11.108;2023-08-06T09:11:44;97277.88;;;25.81;70.83
34586;BME280;20816;50.950;11.108;2023-08-06T09:14:11;97272.06;;;26.52;68.08
34586;BME280;20816;50.950;11.108;2023-08-06T09:16:38;97266.38;;;26.72;66.35
34586;BME280;20816;50.950;11.108;2023-08-06T09:19:12;97278.66;;;25.48;67.43
34586;BME280;20816;50.950;11.108;2023-08-06T09:21:39;97277.53;;;24.35;70.09
34586;BME280;20816;50.950;11.108;2023-08-06T09:24:08;97273.84;;;23.91;71.77
34586;BME280;20816;50.950;11.108;2023-08-06T09:26:43;97279.03;;;23.08;75.31
34586;BME280;20816;50.950;11.108;2023-08-06T09:29:11;97274.34;;;23.30;75.73
34586;BME280;20816;50.950;11.108;2023-08-06T09:31:45;97281.16;;;23.05;76.19
34586;BME280;20816;50.950;11.108;2023-08-06T09:34:16;97277.22;;;22.41;80.07
34586;BME280;20816;50.950;11.108;2023-08-06T09:36:46;97266.31;;;21.73;81.54
34586;BME280;20816;50.950;11.108;2023-08-06T09:39:14;97274.84;;;21.27;83.71
34586;BME280;20816;50.950;11.108;2023-08-06T09:41:42;97267.44;;;21.40;81.46
34586;BME280;20816;50.950;11.108;2023-08-06T09:44:18;97276.38;;;21.50;82.32
34586;BME280;20816;50.950;11.108;2023-08-06T09:46:53;97275.97;;;21.95;78.30
34586;BME280;20816;50.950;11.108;2023-08-06T09:49:24;97269.22;;;22.01;77.51
34586;BME280;20816;50.950;11.108;2023-08-06T09:51:51;97266.03;;;21.67;76.99
34586;BME280;20816;50.950;11.108;2023-08-06T09:54:23;97271.00;;;22.70;76.89
34586;BME280;20816;50.950;11.108;2023-08-06T09:56:54;97263.22;;;23.71;72.25
34586;BME280;20816;50.950;11.108;2023-08-06T09:59:23;97250.88;;;24.06;71.62
34586;BME280;20816;50.950;11.108;2023-08-06T10:01:50;97246.50;;;23.77;71.25
34586;BME280;20816;50.950;11.108;2023-08-06T10:04:19;97244.22;;;23.83;70.74
34586;BME280;20816;50.950;11.108;2023-08-06T10:06:51;97239.63;;;24.20;68.22
34586;BME280;20816;50.950;11.108;2023-08-06T10:09:19;97235.88;;;24.49;67.13
34586;BME280;20816;50.950;11.108;2023-08-06T10:11:51;97237.06;;;25.60;63.92
34586;BME280;20816;50.950;11.108;2023-08-06T10:14:24;97229.25;;;25.75;62.93
34586;BME280;20816;50.950;11.108;2023-08-06T10:16:53;97225.31;;;26.11;63.26
34586;BME280;20816;50.950;11.108;2023-08-06T10:19:21;97221.19;;;26.41;61.37
34586;BME280;20816;50.950;11.108;2023-08-06T10:22:16;97216.88;;;25.64;62.95
34586;BME280;20816;50.950;11.108;2023-08-06T10:24:48;97210.53;;;26.15;62.12
34586;BME280;20816;50.950;11.108;2023-08-06T10:27:39;97208.06;;;26.63;60.61
34586;BME280;20816;50.950;11.108;2023-08-06T10:30:28;97212.47;;;26.72;60.98
34586;BME280;20816;50.950;11.108;2023-08-06T10:32:56;97196.16;;;27.53;58.59
34586;BME280;20816;50.950;11.108;2023-08-06T10:35:36;97201.91;;;26.04;62.03
34586;BME280;20816;50.950;11.108;2023-08-06T10:38:08;97195.63;;;25.19;63.24
34586;BME280;20816;50.950;11.108;2023-08-06T10:43:27;97184.31;;;25.41;61.58
34586;BME280;20816;50.950;11.108;2023-08-06T10:45:55;97190.47;;;25.25;63.62
34586;BME280;20816;50.950;11.108;2023-08-06T10:48:29;97183.63;;;25.73;61.95
34586;BME280;20816;50.950;11.108;2023-08-06T10:51:00;97179.34;;;26.05;60.48
34586;BME280;20816;50.950;11.108;2023-08-06T10:53:27;97174.38;;;26.67;58.92
34586;BME280;20816;50.950;11.108;2023-08-06T10:55:57;97165.06;;;27.18;57.51
34586;BME280;20816;50.950;11.108;2023-08-06T10:58:24;97167.28;;;28.24;56.18
34586;BME280;20816;50.950;11.108;2023-08-06T11:00:51;97167.63;;;28.90;52.30
34586;BME280;20816;50.950;11.108;2023-08-06T11:03:18;97158.25;;;29.15;53.53
34586;BME280;20816;50.950;11.108;2023-08-06T11:05:49;97157.88;;;27.89;55.15
34586;BME280;20816;50.950;11.108;2023-08-06T11:08:32;97163.56;;;27.07;57.52
34586;BME280;20816;50.950;11.108;2023-08-06T11:11:10;97148.28;;;25.68;60.55
34586;BME280;20816;50.950;11.108;2023-08-06T11:13:39;97163.13;;;24.60;62.83
34586;BME280;20816;50.950;11.108;2023-08-06T11:16:06;97167.59;;;24.33;64.80
34586;BME280;20816;50.950;11.108;2023-08-06T11:18:33;97165.22;;;23.67;66.00
34586;BME280;20816;50.950;11.108;2023-08-06T11:21:00;97163.31;;;23.50;66.76
34586;BME280;20816;50.950;11.108;2023-08-06T11:23:28;97161.00;;;23.28;66.60
34586;BME280;20816;50.950;11.108;2023-08-06T11:25:57;97148.38;;;23.47;66.24
34586;BME280;20816;50.950;11.108;2023-08-06T11:28:24;97149.81;;;23.42;68.12
34586;BME280;20816;50.950;11.108;2023-08-06T11:30:52;97150.91;;;23.49;70.25
34586;BME280;20816;50.950;11.108;2023-08-06T11:33:22;97160.44;;;23.61;68.47
34586;BME280;20816;50.950;11.108;2023-08-06T11:35:52;97154.00;;;23.99;66.55
34586;BME280;20816;50.950;11.108;2023-08-06T11:38:19;97153.00;;;24.54;63.44
34586;BME280;20816;50.950;11.108;2023-08-06T11:40:47;97139.97;;;25.11;61.90
34586;BME280;20816;50.950;11.108;2023-08-06T11:43:14;97139.00;;;25.20;60.55
34586;BME280;20816;50.950;11.108;2023-08-06T11:45:41;97138.28;;;25.10;60.41
34586;BME280;20816;50.950;11.108;2023-08-06T11:48:07;97143.97;;;25.49;60.79
34586;BME280;20816;50.950;11.108;2023-08-06T11:50:38;97130.38;;;25.51;59.14
34586;BME280;20816;50.950;11.108;2023-08-06T11:53:12;97131.09;;;25.19;60.74
34586;BME280;20816;50.950;11.108;2023-08-06T11:55:39;97136.44;;;24.84;62.82
34586;BME280;20816;50.950;11.108;2023-08-06T11:58:07;97135.91;;;24.37;64.10
34586;BME280;20816;50.950;11.108;2023-08-06T12:00:33;97131.25;;;25.17;63.46
34586;BME280;20816;50.950;11.108;2023-08-06T12:03:00;97130.81;;;25.72;61.41
34586;BME280;20816;50.950;11.108;2023-08-06T12:05:29;97116.09;;;26.17;59.65
34586;BME280;20816;50.950;11.108;2023-08-06T12:07:58;97127.28;;;25.71;61.61
34586;BME280;20816;50.950;11.108;2023-08-06T12:10:27;97122.69;;;25.64;58.95
34586;BME280;20816;50.950;11.108;2023-08-06T12:12:55;97126.88;;;25.16;61.29
34586;BME280;20816;50.950;11.108;2023-08-06T12:15:22;97137.94;;;24.61;64.19
34586;BME280;20816;50.950;11.108;2023-08-06T12:17:50;97128.44;;;24.31;64.70
34586;BME280;20816;50.950;11.108;2023-08-06T12:20:17;97129.22;;;23.88;67.93
34586;BME280;20816;50.950;11.108;2023-08-06T12:22:43;97139.81;;;24.43;66.01
34586;BME280;20816;50.950;11.108;2023-08-06T12:25:13;97134.59;;;24.85;65.50
34586;BME280;20816;50.950;11.108;2023-08-06T12:27:44;97139.94;;;25.95;63.81
34586;BME280;20816;50.950;11.108;2023-08-06T12:30:11;97137.91;;;25.97;62.01
34586;BME280;20816;50.950;11.108;2023-08-06T12:32:39;97143.31;;;24.87;66.03
34586;BME280;20816;50.950;11.108;2023-08-06T12:35:06;97151.28;;;23.27;70.49
34586;BME280;20816;50.950;11.108;2023-08-06T12:37:34;97153.69;;;22.83;73.85
34586;BME280;20816;50.950;11.108;2023-08-06T12:40:02;97152.88;;;22.05;76.21
34586;BME280;20816;50.950;11.108;2023-08-06T12:42:50;97152.09;;;22.24;75.93
34586;BME280;20816;50.950;11.108;2023-08-06T12:45:17;97153.97;;;21.64;77.53
34586;BME280;20816;50.950;11.108;2023-08-06T12:47:48;97145.53;;;21.59;78.57
34586;BME280;20816;50.950;11.108;2023-08-06T12:50:16;97145.91;;;21.44;79.01
34586;BME280;20816;50.950;11.108;2023-08-06T12:52:44;97146.56;;;21.27;77.91